createdAt,value
2022-12-03T00:02:00.333Z,77.95
2022-12-03T00:04:27.094Z,72.68
2022-12-03T00:06:53.851Z,73.40
2022-12-03T00:09:20.524Z,73.38
2022-12-03T00:11:47.429Z,70.22
2022-12-03T00:14:14.147Z,71.38
2022-12-03T00:16:40.764Z,73.88
2022-12-03T00:19:07.731Z,63.00
2022-12-03T00:21:34.845Z,70.75
2022-12-03T00:24:01.507Z,72.82
2022-12-03T00:26:28.141Z,70.38
2022-12-03T00:28:54.995Z,76.57
2022-12-03T00:31:23.443Z,71.22
2022-12-03T00:33:51.767Z,68.93
2022-12-03T00:36:18.739Z,75.20
2022-12-03T00:38:45.722Z,72.75
2022-12-03T00:41:13.019Z,72.03
2022-12-03T00:43:39.954Z,73.22
2022-12-03T00:46:06.727Z,72.25
2022-12-03T00:48:33.385Z,76.00
2022-12-03T00:51:00.006Z,71.22
2022-12-03T00:53:26.881Z,68.85
2022-12-03T00:55:53.566Z,73.15
2022-12-03T00:58:20.271Z,75.50
2022-12-03T01:00:46.999Z,76.15
2022-12-03T01:03:13.702Z,81.43
2022-12-03T01:05:40.386Z,78.35
2022-12-03T01:08:07.119Z,74.45
2022-12-03T01:10:33.808Z,75.40
2022-12-03T01:13:00.500Z,77.95
2022-12-03T01:15:27.193Z,87.45
2022-12-03T01:17:54.438Z,76.93
2022-12-03T01:20:21.273Z,76.28
2022-12-03T01:22:47.939Z,77.83
2022-12-03T01:25:14.999Z,75.32
2022-12-03T01:27:41.570Z,78.30
2022-12-03T01:30:08.830Z,77.40
2022-12-03T01:32:35.466Z,73.43
2022-12-03T01:35:02.081Z,72.25
2022-12-03T01:37:28.682Z,79.00
2022-12-03T01:39:55.447Z,71.97
2022-12-03T01:42:28.064Z,71.32
2022-12-03T01:44:57.469Z,79.95
2022-12-03T01:47:36.006Z,79.85
2022-12-03T01:50:14.922Z,74.00
2022-12-03T01:52:42.156Z,79.20
2022-12-03T01:55:14.851Z,80.53
2022-12-03T01:57:45.963Z,65.80
2022-12-03T02:00:22.150Z,73.10
2022-12-03T02:02:52.471Z,76.53
2022-12-03T02:05:23.493Z,77.47
2022-12-03T02:07:50.716Z,72.82
2022-12-03T02:10:20.709Z,79.03
2022-12-03T02:12:58.722Z,71.70
2022-12-03T02:15:25.794Z,72.72
2022-12-03T02:17:53.109Z,75.60
2022-12-03T02:20:20.371Z,76.57
2022-12-03T02:23:10.680Z,74.60
2022-12-03T02:25:38.444Z,70.43
2022-12-03T02:28:07.727Z,77.32
2022-12-03T02:30:34.882Z,78.57
2022-12-03T02:33:02.208Z,79.00
2022-12-03T02:35:33.618Z,76.75
2022-12-03T02:38:24.504Z,67.68
2022-12-03T02:40:54.983Z,74.63
2022-12-03T02:43:22.607Z,75.07
2022-12-03T02:45:55.464Z,73.07
2022-12-03T02:48:33.457Z,64.63
2022-12-03T02:51:03.751Z,69.97
2022-12-03T02:53:42.319Z,71.80
2022-12-03T02:56:10.607Z,68.50
2022-12-03T02:58:37.952Z,75.43
2022-12-03T03:01:05.173Z,69.07
2022-12-03T03:03:32.789Z,70.80
2022-12-03T03:06:01.718Z,70.35
2022-12-03T03:08:30.522Z,71.07
2022-12-03T03:11:00.927Z,73.15
2022-12-03T03:13:29.344Z,73.38
2022-12-03T03:15:56.758Z,79.90
2022-12-03T03:18:23.842Z,70.73
2022-12-03T03:20:50.933Z,74.88
2022-12-03T03:23:20.024Z,72.57
2022-12-03T03:25:58.572Z,69.43
2022-12-03T03:28:26.548Z,74.97
2022-12-03T03:30:53.659Z,79.28
2022-12-03T03:33:20.517Z,71.93
2022-12-03T03:35:48.707Z,77.85
2022-12-03T03:38:18.661Z,70.85
2022-12-03T03:40:46.353Z,77.32
2022-12-03T03:43:13.445Z,70.55
2022-12-03T03:45:40.350Z,70.13
2022-12-03T03:48:07.193Z,70.65
2022-12-03T03:50:34.640Z,71.28
2022-12-03T03:53:02.577Z,85.90
2022-12-03T03:55:30.140Z,76.60
2022-12-03T03:57:57.019Z,76.90
2022-12-03T04:00:23.761Z,75.63
2022-12-03T04:02:51.928Z,74.57
2022-12-03T04:05:21.272Z,78.33
2022-12-03T04:07:48.443Z,77.65
2022-12-03T04:10:36.302Z,75.60
2022-12-03T04:13:03.593Z,76.53
2022-12-03T04:15:31.040Z,80.83
2022-12-03T04:18:16.525Z,77.05
2022-12-03T04:20:43.162Z,81.43
2022-12-03T04:23:09.923Z,78.40
2022-12-03T04:25:55.327Z,76.97
2022-12-03T04:28:40.922Z,82.05
2022-12-03T04:31:27.679Z,84.55
2022-12-03T04:34:13.129Z,75.80
2022-12-03T04:36:39.888Z,83.72
2022-12-03T04:39:06.600Z,83.20
2022-12-03T04:41:33.194Z,85.82
2022-12-03T04:44:18.572Z,78.43
2022-12-03T04:46:45.203Z,85.93
2022-12-03T04:49:11.940Z,83.33
2022-12-03T04:51:38.565Z,84.97
2022-12-03T04:54:05.334Z,86.63
2022-12-03T04:56:32.025Z,81.47
2022-12-03T04:58:58.749Z,85.72
2022-12-03T05:01:25.465Z,83.43
2022-12-03T05:03:52.125Z,80.80
2022-12-03T05:06:18.868Z,80.68
2022-12-03T05:08:45.501Z,87.20
2022-12-03T05:11:12.131Z,81.47
2022-12-03T05:13:38.853Z,81.95
2022-12-03T05:16:05.668Z,82.80
2022-12-03T05:18:32.307Z,78.72
2022-12-03T05:20:59.066Z,87.00
2022-12-03T05:23:25.867Z,86.20
2022-12-03T05:25:52.522Z,85.73
2022-12-03T05:28:22.252Z,82.93
2022-12-03T05:30:48.915Z,90.10
2022-12-03T05:33:15.910Z,86.00
2022-12-03T05:35:42.796Z,91.15
2022-12-03T05:38:09.705Z,87.07
2022-12-03T05:40:36.335Z,87.75
2022-12-03T05:43:03.179Z,85.27
2022-12-03T05:45:35.798Z,86.00
2022-12-03T05:48:03.575Z,92.45
2022-12-03T05:50:32.621Z,92.85
2022-12-03T05:53:00.285Z,85.40
2022-12-03T05:55:27.490Z,86.45
2022-12-03T05:57:54.288Z,88.50
2022-12-03T06:00:26.552Z,100.77
2022-12-03T06:02:54.154Z,91.20
2022-12-03T06:05:21.487Z,95.17
2022-12-03T06:07:50.323Z,98.03
2022-12-03T06:10:21.090Z,97.50
2022-12-03T06:12:47.719Z,93.80
2022-12-03T06:15:15.181Z,92.05
2022-12-03T06:17:42.235Z,96.63
2022-12-03T06:20:13.532Z,89.00
2022-12-03T06:22:40.305Z,91.87
2022-12-03T06:25:07.672Z,97.97
2022-12-03T06:27:34.361Z,97.60
2022-12-03T06:30:01.051Z,97.70
2022-12-03T06:32:27.673Z,99.93
2022-12-03T06:34:54.765Z,101.67
2022-12-03T06:37:21.635Z,93.57
2022-12-03T06:39:48.283Z,101.73
2022-12-03T06:42:14.989Z,86.93
2022-12-03T06:44:41.632Z,92.07
2022-12-03T06:47:08.243Z,97.50
2022-12-03T06:49:34.925Z,87.90
2022-12-03T06:52:01.705Z,96.17
2022-12-03T06:54:28.459Z,96.60
2022-12-03T06:56:55.129Z,95.80
2022-12-03T06:59:21.718Z,100.27
2022-12-03T07:01:48.436Z,103.03
2022-12-03T07:04:15.077Z,100.70
2022-12-03T07:06:41.704Z,101.10
2022-12-03T07:09:08.326Z,89.80
2022-12-03T07:11:40.538Z,97.43
2022-12-03T07:14:09.103Z,100.90
2022-12-03T07:16:36.460Z,104.73
2022-12-03T07:19:05.042Z,110.40
2022-12-03T07:21:31.655Z,114.00
2022-12-03T07:23:58.359Z,98.00
2022-12-03T07:26:24.965Z,94.10
2022-12-03T07:28:51.764Z,106.03
2022-12-03T07:31:18.589Z,103.27
2022-12-03T07:33:45.329Z,108.57
2022-12-03T07:36:12.155Z,110.30
2022-12-03T07:38:38.754Z,102.90
2022-12-03T07:41:05.556Z,105.70
2022-12-03T07:43:32.505Z,100.17
2022-12-03T07:45:59.193Z,106.40
2022-12-03T07:48:25.904Z,106.17
2022-12-03T07:50:52.662Z,109.87
2022-12-03T07:53:19.559Z,103.20
2022-12-03T07:55:46.249Z,95.87
2022-12-03T07:58:12.910Z,94.53
2022-12-03T08:00:39.819Z,96.47
2022-12-03T08:03:06.457Z,90.83
2022-12-03T08:05:33.163Z,103.10
2022-12-03T08:07:59.929Z,102.63
2022-12-03T08:10:26.749Z,100.90
2022-12-03T08:12:53.991Z,98.97
2022-12-03T08:15:25.970Z,105.40
2022-12-03T08:17:58.876Z,95.45
2022-12-03T08:20:33.539Z,102.63
2022-12-03T08:23:03.782Z,99.10
2022-12-03T08:25:33.147Z,101.23
2022-12-03T08:28:07.747Z,77.68
2022-12-03T08:30:37.656Z,98.63
2022-12-03T08:33:17.091Z,94.93
2022-12-03T08:35:50.255Z,97.88
2022-12-03T08:38:21.321Z,101.80
2022-12-03T08:40:51.135Z,98.25
2022-12-03T08:43:27.751Z,95.88
2022-12-03T08:45:56.707Z,96.80
2022-12-03T08:48:36.445Z,106.53
2022-12-03T08:51:14.631Z,100.32
2022-12-03T08:53:50.977Z,96.70
2022-12-03T08:56:26.364Z,102.95
2022-12-03T08:58:59.235Z,98.82
2022-12-03T09:01:43.114Z,94.35
2022-12-03T09:04:26.642Z,99.97
2022-12-03T09:06:54.431Z,99.85
2022-12-03T09:09:22.809Z,92.75
2022-12-03T09:11:50.650Z,97.00
2022-12-03T09:14:18.899Z,104.30
2022-12-03T09:16:45.990Z,91.57
2022-12-03T09:19:12.690Z,92.68
2022-12-03T09:21:39.301Z,92.18
2022-12-03T09:24:06.250Z,98.57
2022-12-03T09:26:33.008Z,96.57
2022-12-03T09:28:59.671Z,106.70
2022-12-03T09:31:26.427Z,100.43
2022-12-03T09:33:53.060Z,106.15
2022-12-03T09:36:19.728Z,101.43
2022-12-03T09:38:48.259Z,99.22
2022-12-03T09:41:15.210Z,99.38
2022-12-03T09:46:33.769Z,89.97
2022-12-03T09:49:01.463Z,91.97
2022-12-03T09:51:34.530Z,97.25
2022-12-03T09:54:06.236Z,101.13
2022-12-03T09:56:36.609Z,103.05
2022-12-03T09:59:12.513Z,97.53
2022-12-03T10:01:39.291Z,101.15
2022-12-03T10:04:06.039Z,99.50
2022-12-03T10:06:32.950Z,101.25
2022-12-03T10:09:00.084Z,105.28
2022-12-03T10:11:28.768Z,102.25
2022-12-03T10:13:57.436Z,102.00
2022-12-03T10:16:25.235Z,100.13
2022-12-03T10:18:55.548Z,109.72
2022-12-03T10:21:36.022Z,96.45
2022-12-03T10:24:18.990Z,101.20
2022-12-03T10:26:48.182Z,101.32
2022-12-03T10:29:21.138Z,102.50
2022-12-03T10:32:00.109Z,95.00
2022-12-03T10:34:30.733Z,95.85
2022-12-03T10:37:21.571Z,94.55
2022-12-03T10:39:55.977Z,90.72
2022-12-03T10:42:24.034Z,99.07
2022-12-03T10:45:14.720Z,93.13
2022-12-03T10:47:42.625Z,95.50
2022-12-03T10:50:20.064Z,96.55
2022-12-03T10:52:47.994Z,99.65
2022-12-03T10:55:15.217Z,86.90
2022-12-03T10:57:45.637Z,96.68
2022-12-03T11:00:22.803Z,93.78
2022-12-03T11:02:56.444Z,91.07
2022-12-03T11:05:27.373Z,89.75
2022-12-03T11:07:54.483Z,84.88
2022-12-03T11:10:21.616Z,95.50
2022-12-03T11:13:26.258Z,93.55
2022-12-03T11:15:53.718Z,88.60
2022-12-03T11:18:38.639Z,88.80
2022-12-03T11:21:12.130Z,95.40
2022-12-03T11:23:45.094Z,88.75
2022-12-03T11:26:18.444Z,94.40
2022-12-03T11:28:45.649Z,83.68
2022-12-03T11:31:46.911Z,94.65
2022-12-03T11:34:22.589Z,83.22
2022-12-03T11:37:11.112Z,90.28
2022-12-03T11:39:50.647Z,97.18
2022-12-03T11:42:26.200Z,87.43
2022-12-03T11:45:05.313Z,98.75
2022-12-03T11:47:39.744Z,93.10
2022-12-03T11:50:21.664Z,94.88
2022-12-03T11:52:53.341Z,81.57
2022-12-03T11:55:23.054Z,92.47
2022-12-03T11:57:56.368Z,83.40
2022-12-03T12:00:24.653Z,92.93
2022-12-03T12:02:54.072Z,85.53
2022-12-03T12:05:25.608Z,83.70
2022-12-03T12:07:52.979Z,101.82
2022-12-03T12:10:41.058Z,94.20
2022-12-03T12:13:31.288Z,86.75
2022-12-03T12:16:02.903Z,95.32
2022-12-03T12:18:40.397Z,89.90
2022-12-03T12:21:47.683Z,81.07
2022-12-03T12:24:46.829Z,95.60
2022-12-03T12:27:37.919Z,95.10
2022-12-03T12:30:08.796Z,93.13
2022-12-03T12:32:50.049Z,88.50
2022-12-03T12:35:24.351Z,87.50
2022-12-03T12:38:02.388Z,90.22
2022-12-03T12:40:31.344Z,91.65
2022-12-03T12:43:04.148Z,93.20
2022-12-03T12:45:37.217Z,99.15
2022-12-03T12:48:19.587Z,85.78
2022-12-03T12:50:48.238Z,91.75
2022-12-03T12:53:17.600Z,86.25
2022-12-03T12:55:44.361Z,95.93
2022-12-03T12:58:17.687Z,98.78
2022-12-03T13:00:51.358Z,83.47
2022-12-03T13:03:21.935Z,91.88
2022-12-03T13:05:50.583Z,95.57
2022-12-03T13:08:29.719Z,96.03
2022-12-03T13:11:01.073Z,88.67
2022-12-03T13:13:45.731Z,96.53
2022-12-03T13:16:27.969Z,86.22
2022-12-03T13:18:59.455Z,93.45
2022-12-03T13:21:37.631Z,87.10
2022-12-03T13:24:37.837Z,89.28
2022-12-03T13:29:40.477Z,86.93
2022-12-03T13:32:14.036Z,87.72
2022-12-03T13:34:41.083Z,95.25
2022-12-03T13:37:25.183Z,94.85
2022-12-03T13:39:55.107Z,93.97
2022-12-03T13:45:25.127Z,95.07
2022-12-03T13:48:13.894Z,97.45
2022-12-03T13:50:46.080Z,95.93
2022-12-03T13:53:33.202Z,84.43
2022-12-03T13:56:28.664Z,80.32
2022-12-03T13:58:57.295Z,83.22
2022-12-03T14:01:24.440Z,94.30
2022-12-03T14:03:51.264Z,88.72
2022-12-03T14:06:18.017Z,85.20
2022-12-03T14:08:45.033Z,84.80
2022-12-03T14:11:30.952Z,81.03
2022-12-03T14:13:57.661Z,87.47
2022-12-03T14:16:24.605Z,83.00
2022-12-03T14:18:51.516Z,83.90
2022-12-03T14:21:18.187Z,82.63
2022-12-03T14:23:44.952Z,78.30
2022-12-03T14:26:11.555Z,90.00
2022-12-03T14:28:38.244Z,79.43
2022-12-03T14:31:04.928Z,77.75
2022-12-03T14:33:31.717Z,76.53
2022-12-03T14:35:58.801Z,80.55
2022-12-03T14:38:25.429Z,81.50
2022-12-03T14:40:52.128Z,82.28
2022-12-03T14:43:18.814Z,80.95
2022-12-03T14:45:45.863Z,82.00
2022-12-03T14:48:12.565Z,87.88
2022-12-03T14:50:39.261Z,71.57
2022-12-03T14:53:05.943Z,83.22
2022-12-03T14:55:32.959Z,84.10
2022-12-03T14:57:59.711Z,86.57
2022-12-03T15:00:26.421Z,79.45
2022-12-03T15:02:53.174Z,89.35
2022-12-03T15:05:24.921Z,77.25
2022-12-03T15:07:55.155Z,87.93
2022-12-03T15:10:21.830Z,83.32
2022-12-03T15:12:48.697Z,83.63
2022-12-03T15:15:15.403Z,83.43
2022-12-03T15:17:45.605Z,80.90
2022-12-03T15:20:12.824Z,83.93
2022-12-03T15:22:39.554Z,87.10
2022-12-03T15:25:07.767Z,88.05
2022-12-03T15:27:34.599Z,82.03
2022-12-03T15:30:03.378Z,82.80
2022-12-03T15:32:30.010Z,81.00
2022-12-03T15:34:56.785Z,77.35
2022-12-03T15:37:27.648Z,76.07
2022-12-03T15:39:54.765Z,79.07
2022-12-03T15:42:24.712Z,76.35
2022-12-03T15:44:51.444Z,79.75
2022-12-03T15:47:18.389Z,78.40
2022-12-03T15:49:45.007Z,80.63
2022-12-03T15:52:11.775Z,81.63
2022-12-03T15:54:38.907Z,81.30
2022-12-03T15:57:05.612Z,75.88
2022-12-03T15:59:32.280Z,76.50
2022-12-03T16:01:59.202Z,78.07
2022-12-03T16:04:26.013Z,76.80
2022-12-03T16:06:52.959Z,82.40
2022-12-03T16:09:25.271Z,73.05
2022-12-03T16:11:53.838Z,73.78
2022-12-03T16:14:20.705Z,75.32
2022-12-03T16:16:47.364Z,70.97
2022-12-03T16:19:14.093Z,76.47
2022-12-03T16:21:40.685Z,75.03
2022-12-03T16:24:07.428Z,68.50
2022-12-03T16:26:34.169Z,70.65
2022-12-03T16:29:00.801Z,79.32
2022-12-03T16:31:27.454Z,74.25
2022-12-03T16:33:54.759Z,73.97
2022-12-03T16:36:21.390Z,72.38
2022-12-03T16:38:48.001Z,72.95
2022-12-03T16:41:14.632Z,79.80
2022-12-03T16:43:41.342Z,69.93
2022-12-03T16:46:14.432Z,66.93
2022-12-03T16:48:41.769Z,68.53
2022-12-03T16:51:08.938Z,69.82
2022-12-03T16:53:35.682Z,67.15
2022-12-03T16:56:02.770Z,62.42
2022-12-03T16:58:29.539Z,68.00
2022-12-03T17:00:56.142Z,76.13
2022-12-03T17:03:22.815Z,72.43
2022-12-03T17:05:49.797Z,73.82
2022-12-03T17:08:17.052Z,70.32
2022-12-03T17:10:44.471Z,72.13
2022-12-03T17:13:11.344Z,71.45
2022-12-03T17:15:39.013Z,69.85
2022-12-03T17:18:06.364Z,76.50
2022-12-03T17:20:33.653Z,72.22
2022-12-03T17:23:00.868Z,70.00
2022-12-03T17:25:27.927Z,68.18
2022-12-03T17:27:54.718Z,76.13
2022-12-03T17:30:21.473Z,72.88
2022-12-03T17:32:50.296Z,78.30
2022-12-03T17:35:17.255Z,78.95
2022-12-03T17:37:43.954Z,68.72
2022-12-03T17:40:12.992Z,74.30
2022-12-03T17:42:39.709Z,75.90
2022-12-03T17:45:07.183Z,79.78
2022-12-03T17:47:33.885Z,75.38
2022-12-03T17:50:00.605Z,79.63
2022-12-03T17:52:27.333Z,80.50
2022-12-03T17:55:12.191Z,75.13
2022-12-03T17:57:40.672Z,73.97
2022-12-03T18:00:08.016Z,74.00
2022-12-03T18:02:34.628Z,76.07
2022-12-03T18:05:01.307Z,79.70
2022-12-03T18:07:28.077Z,80.95
2022-12-03T18:09:55.183Z,81.28
2022-12-03T18:12:22.193Z,81.40
2022-12-03T18:14:48.944Z,74.38
2022-12-03T18:17:15.534Z,75.82
2022-12-03T18:19:42.199Z,80.30
2022-12-03T18:22:09.219Z,77.78
2022-12-03T18:24:35.971Z,81.75
2022-12-03T18:27:02.784Z,81.13
2022-12-03T18:29:29.556Z,78.32
2022-12-03T18:31:56.351Z,80.45
2022-12-03T18:34:23.119Z,87.25
2022-12-03T18:36:50.063Z,85.80
2022-12-03T18:39:32.877Z,86.07
2022-12-03T18:41:59.527Z,88.18
2022-12-03T18:44:26.526Z,91.03
2022-12-03T18:46:54.466Z,88.97
2022-12-03T18:49:21.768Z,88.40
2022-12-03T18:51:48.966Z,83.60
2022-12-03T18:54:16.490Z,89.35
2022-12-03T18:56:43.257Z,87.35
2022-12-03T18:59:11.237Z,87.57
2022-12-03T19:01:37.960Z,85.05
2022-12-03T19:04:04.783Z,81.65
2022-12-03T19:06:32.032Z,87.93
2022-12-03T19:08:58.720Z,85.78
2022-12-03T19:11:25.453Z,87.40
2022-12-03T19:13:52.114Z,89.20
2022-12-03T19:16:19.122Z,80.30
2022-12-03T19:18:46.178Z,89.20
2022-12-03T19:21:15.519Z,93.28
2022-12-03T19:23:47.220Z,89.07
2022-12-03T19:26:25.837Z,91.50
2022-12-03T19:28:53.893Z,90.10
2022-12-03T19:31:21.201Z,95.10
2022-12-03T19:33:47.907Z,96.95
2022-12-03T19:36:26.130Z,92.40
2022-12-03T19:38:57.453Z,91.05
2022-12-03T19:41:30.734Z,94.53
2022-12-03T19:43:58.345Z,92.63
2022-12-03T19:46:28.603Z,90.25
2022-12-03T19:48:55.630Z,84.95
2022-12-03T19:51:37.487Z,89.80
2022-12-03T19:54:05.750Z,99.55
2022-12-03T19:56:32.557Z,90.60
2022-12-03T19:58:59.167Z,99.22
2022-12-03T20:01:29.032Z,91.93
2022-12-03T20:03:57.846Z,91.80
2022-12-03T20:06:27.155Z,93.35
2022-12-03T20:09:02.145Z,97.25
2022-12-03T20:11:31.059Z,96.90
2022-12-03T20:14:00.801Z,95.75
2022-12-03T20:16:28.154Z,95.25
2022-12-03T20:19:00.245Z,100.45
2022-12-03T20:21:28.781Z,92.63
2022-12-03T20:23:55.532Z,94.40
2022-12-03T20:26:23.039Z,101.07
2022-12-03T20:28:49.707Z,98.57
2022-12-03T20:31:19.777Z,94.30
2022-12-03T20:36:23.366Z,96.15
2022-12-03T20:38:55.019Z,98.45
2022-12-03T20:41:21.866Z,105.88
2022-12-03T20:43:48.987Z,93.78
2022-12-03T20:46:31.067Z,102.72
2022-12-03T20:48:58.699Z,100.28
2022-12-03T20:51:29.850Z,106.85
2022-12-03T20:53:57.684Z,99.30
2022-12-03T20:56:27.016Z,104.85
2022-12-03T20:58:54.060Z,101.07
2022-12-03T21:01:26.779Z,103.30
2022-12-03T21:03:56.062Z,101.97
2022-12-03T21:06:25.405Z,106.27
2022-12-03T21:08:56.220Z,105.80
2022-12-03T21:11:24.838Z,110.05
2022-12-03T21:13:52.570Z,103.30
2022-12-03T21:16:45.355Z,104.38
2022-12-03T21:19:11.313Z,99.00
2022-12-03T21:21:38.723Z,105.50
2022-12-03T21:24:05.664Z,110.43
2022-12-03T21:26:32.683Z,113.82
2022-12-03T21:28:59.436Z,113.75
2022-12-03T21:31:27.160Z,101.30
2022-12-03T21:33:55.233Z,111.00
2022-12-03T21:36:22.710Z,110.95
2022-12-03T21:38:49.368Z,117.95
2022-12-03T21:41:16.931Z,110.65
2022-12-03T21:43:44.128Z,111.93
2022-12-03T21:47:10.361Z,117.88
2022-12-03T21:49:01.337Z,113.93
2022-12-03T21:51:28.024Z,111.40
2022-12-03T21:53:54.775Z,121.72
2022-12-03T21:56:21.494Z,106.65
2022-12-03T21:58:48.199Z,115.65
2022-12-03T22:01:18.802Z,113.05
2022-12-03T22:03:45.926Z,119.38
2022-12-03T22:06:13.123Z,115.13
2022-12-03T22:08:40.227Z,111.25
2022-12-03T22:11:19.169Z,123.00
2022-12-03T22:13:46.458Z,114.63
2022-12-03T22:16:16.088Z,115.22
2022-12-03T22:18:43.173Z,107.18
2022-12-03T22:21:12.797Z,119.25
2022-12-03T22:23:40.525Z,120.97
2022-12-03T22:26:18.949Z,124.50
2022-12-03T22:28:47.350Z,118.88
2022-12-03T22:31:15.074Z,110.82
2022-12-03T22:33:42.428Z,118.70
2022-12-03T22:36:17.964Z,121.25
2022-12-03T22:38:47.121Z,111.82
2022-12-03T22:41:14.451Z,118.15
2022-12-03T22:43:41.537Z,122.85
2022-12-03T22:46:12.303Z,119.53
2022-12-03T22:48:40.131Z,127.90
2022-12-03T22:51:21.454Z,114.30
2022-12-03T22:53:53.193Z,120.10
2022-12-03T22:56:19.894Z,122.80
2022-12-03T22:58:46.572Z,124.15
2022-12-03T23:01:22.276Z,129.77
2022-12-03T23:03:49.237Z,130.90
2022-12-03T23:06:16.675Z,124.05
2022-12-03T23:08:43.439Z,125.82
2022-12-03T23:11:10.083Z,132.65
2022-12-03T23:13:36.774Z,128.10
2022-12-03T23:16:04.155Z,131.00
2022-12-03T23:18:31.180Z,134.38
2022-12-03T23:20:58.135Z,134.05
2022-12-03T23:23:26.673Z,137.02
2022-12-03T23:26:07.607Z,127.47
2022-12-03T23:28:36.157Z,138.75
2022-12-03T23:31:04.290Z,142.85
2022-12-03T23:33:36.691Z,140.85
2022-12-03T23:36:06.451Z,154.85
2022-12-03T23:38:33.242Z,142.20
2022-12-03T23:41:08.480Z,149.65
2022-12-03T23:43:35.256Z,156.90
2022-12-03T23:46:07.228Z,150.95
2022-12-03T23:48:34.088Z,138.75
2022-12-03T23:51:08.653Z,159.77
2022-12-03T23:53:36.632Z,158.48
2022-12-03T23:56:08.279Z,161.05
2022-12-03T23:58:35.235Z,137.77
